sensor_id;sensor_type;location;lat;lon;timestamp;P1;durP1;ratioP1;P2;durP2;ratioP2
50066;SDS011;35952;52.524;13.340;2023-04-25T00:02:01;6.60;;;4.80;;
50066;SDS011;35952;52.524;13.340;2023-04-25T00:04:28;5.93;;;3.80;;
50066;SDS011;35952;52.524;13.340;2023-04-25T00:06:54;5.27;;;4.40;;
50066;SDS011;35952;52.524;13.340;2023-04-25T00:09:20;5.13;;;4.63;;
50066;SDS011;35952;52.524;13.340;2023-04-25T00:11:46;4.57;;;4.07;;
50066;SDS011;35952;52.524;13.340;2023-04-25T00:14:12;6.83;;;4.00;;
50066;SDS011;35952;52.524;13.340;2023-04-25T00:16:37;3.80;;;3.50;;
50066;SDS011;35952;52.524;13.340;2023-04-25T00:19:03;3.90;;;3.50;;
50066;SDS011;35952;52.524;13.340;2023-04-25T00:21:29;5.50;;;3.73;;
50066;SDS011;35952;52.524;13.340;2023-04-25T00:23:56;5.07;;;4.13;;
50066;SDS011;35952;52.524;13.340;2023-04-25T00:26:22;3.60;;;3.30;;
50066;SDS011;35952;52.524;13.340;2023-04-25T00:28:47;8.10;;;3.87;;
50066;SDS011;35952;52.524;13.340;2023-04-25T00:31:13;3.47;;;3.20;;
50066;SDS011;35952;52.524;13.340;2023-04-25T00:33:39;4.40;;;3.77;;
50066;SDS011;35952;52.524;13.340;2023-04-25T00:36:05;4.23;;;3.80;;
50066;SDS011;35952;52.524;13.340;2023-04-25T00:38:31;4.60;;;4.10;;
50066;SDS011;35952;52.524;13.340;2023-04-25T00:40:57;7.10;;;4.03;;
50066;SDS011;35952;52.524;13.340;2023-04-25T00:43:23;8.23;;;3.90;;
50066;SDS011;35952;52.524;13.340;2023-04-25T00:45:52;7.13;;;3.40;;
50066;SDS011;35952;52.524;13.340;2023-04-25T00:48:18;5.77;;;4.00;;
50066;SDS011;35952;52.524;13.340;2023-04-25T00:50:48;6.60;;;4.63;;
50066;SDS011;35952;52.524;13.340;2023-04-25T00:53:17;7.50;;;4.40;;
50066;SDS011;35952;52.524;13.340;2023-04-25T00:55:43;6.83;;;3.50;;
50066;SDS011;35952;52.524;13.340;2023-04-25T00:58:09;4.00;;;3.60;;
50066;SDS011;35952;52.524;13.340;2023-04-25T01:00:34;5.77;;;4.07;;
50066;SDS011;35952;52.524;13.340;2023-04-25T01:03:01;7.43;;;5.00;;
50066;SDS011;35952;52.524;13.340;2023-04-25T01:05:27;10.10;;;5.33;;
50066;SDS011;35952;52.524;13.340;2023-04-25T01:07:52;4.57;;;3.83;;
50066;SDS011;35952;52.524;13.340;2023-04-25T01:10:18;7.40;;;3.97;;
50066;SDS011;35952;52.524;13.340;2023-04-25T01:12:44;7.07;;;4.93;;
50066;SDS011;35952;52.524;13.340;2023-04-25T01:15:09;6.40;;;4.33;;
50066;SDS011;35952;52.524;13.340;2023-04-25T01:17:35;4.63;;;3.83;;
50066;SDS011;35952;52.524;13.340;2023-04-25T01:20:03;5.03;;;3.63;;
50066;SDS011;35952;52.524;13.340;2023-04-25T01:22:29;6.90;;;4.00;;
50066;SDS011;35952;52.524;13.340;2023-04-25T01:24:55;8.93;;;4.23;;
50066;SDS011;35952;52.524;13.340;2023-04-25T01:27:21;7.50;;;4.40;;
50066;SDS011;35952;52.524;13.340;2023-04-25T01:29:47;4.30;;;3.93;;
50066;SDS011;35952;52.524;13.340;2023-04-25T01:32:14;6.73;;;5.53;;
50066;SDS011;35952;52.524;13.340;2023-04-25T01:34:40;4.40;;;4.00;;
50066;SDS011;35952;52.524;13.340;2023-04-25T01:37:05;7.67;;;4.53;;
50066;SDS011;35952;52.524;13.340;2023-04-25T01:39:31;10.53;;;5.13;;
50066;SDS011;35952;52.524;13.340;2023-04-25T01:41:58;7.40;;;4.47;;
50066;SDS011;35952;52.524;13.340;2023-04-25T01:44:24;7.23;;;4.67;;
50066;SDS011;35952;52.524;13.340;2023-04-25T01:46:50;9.83;;;5.07;;
50066;SDS011;35952;52.524;13.340;2023-04-25T01:49:16;5.50;;;4.50;;
50066;SDS011;35952;52.524;13.340;2023-04-25T01:51:41;7.57;;;4.80;;
50066;SDS011;35952;52.524;13.340;2023-04-25T01:54:08;7.50;;;4.70;;
50066;SDS011;35952;52.524;13.340;2023-04-25T01:56:36;8.67;;;4.67;;
50066;SDS011;35952;52.524;13.340;2023-04-25T01:59:03;6.43;;;5.40;;
50066;SDS011;35952;52.524;13.340;2023-04-25T02:01:29;4.73;;;4.33;;
50066;SDS011;35952;52.524;13.340;2023-04-25T02:03:55;8.10;;;4.70;;
50066;SDS011;35952;52.524;13.340;2023-04-25T02:06:20;8.53;;;4.57;;
50066;SDS011;35952;52.524;13.340;2023-04-25T02:08:46;5.93;;;4.37;;
50066;SDS011;35952;52.524;13.340;2023-04-25T02:11:11;7.07;;;5.00;;
50066;SDS011;35952;52.524;13.340;2023-04-25T02:13:37;12.83;;;4.00;;
50066;SDS011;35952;52.524;13.340;2023-04-25T02:16:03;7.90;;;4.67;;
50066;SDS011;35952;52.524;13.340;2023-04-25T02:18:28;7.60;;;4.20;;
50066;SDS011;35952;52.524;13.340;2023-04-25T02:20:54;8.83;;;4.57;;
50066;SDS011;35952;52.524;13.340;2023-04-25T02:23:19;9.57;;;5.30;;
50066;SDS011;35952;52.524;13.340;2023-04-25T02:25:45;8.63;;;5.03;;
50066;SDS011;35952;52.524;13.340;2023-04-25T02:28:11;6.40;;;4.40;;
50066;SDS011;35952;52.524;13.340;2023-04-25T02:30:36;5.80;;;5.30;;
50066;SDS011;35952;52.524;13.340;2023-04-25T02:33:02;7.00;;;5.20;;
50066;SDS011;35952;52.524;13.340;2023-04-25T02:35:28;9.80;;;6.07;;
50066;SDS011;35952;52.524;13.340;2023-04-25T02:37:53;7.73;;;4.67;;
50066;SDS011;35952;52.524;13.340;2023-04-25T02:40:19;10.13;;;5.63;;
50066;SDS011;35952;52.524;13.340;2023-04-25T02:42:44;7.10;;;4.80;;
50066;SDS011;35952;52.524;13.340;2023-04-25T02:45:13;5.70;;;4.20;;
50066;SDS011;35952;52.524;13.340;2023-04-25T02:47:39;9.47;;;5.20;;
50066;SDS011;35952;52.524;13.340;2023-04-25T02:50:05;9.60;;;5.30;;
50066;SDS011;35952;52.524;13.340;2023-04-25T02:52:31;10.93;;;5.00;;
50066;SDS011;35952;52.524;13.340;2023-04-25T02:54:56;6.50;;;5.80;;
50066;SDS011;35952;52.524;13.340;2023-04-25T02:57:22;7.30;;;5.13;;
50066;SDS011;35952;52.524;13.340;2023-04-25T02:59:47;9.43;;;5.90;;
50066;SDS011;35952;52.524;13.340;2023-04-25T03:02:13;8.07;;;5.73;;
50066;SDS011;35952;52.524;13.340;2023-04-25T03:04:38;7.17;;;5.87;;
50066;SDS011;35952;52.524;13.340;2023-04-25T03:07:04;9.27;;;5.47;;
50066;SDS011;35952;52.524;13.340;2023-04-25T03:09:33;9.27;;;6.30;;
50066;SDS011;35952;52.524;13.340;2023-04-25T03:11:58;5.93;;;5.30;;
50066;SDS011;35952;52.524;13.340;2023-04-25T03:14:24;6.30;;;5.70;;
50066;SDS011;35952;52.524;13.340;2023-04-25T03:16:49;7.83;;;6.33;;
50066;SDS011;35952;52.524;13.340;2023-04-25T03:19:15;8.03;;;6.00;;
50066;SDS011;35952;52.524;13.340;2023-04-25T03:21:41;8.70;;;5.90;;
50066;SDS011;35952;52.524;13.340;2023-04-25T03:24:07;6.27;;;5.40;;
50066;SDS011;35952;52.524;13.340;2023-04-25T03:26:33;14.70;;;7.10;;
50066;SDS011;35952;52.524;13.340;2023-04-25T03:28:58;13.93;;;6.70;;
50066;SDS011;35952;52.524;13.340;2023-04-25T03:31:24;13.40;;;6.37;;
50066;SDS011;35952;52.524;13.340;2023-04-25T03:33:49;6.73;;;6.13;;
50066;SDS011;35952;52.524;13.340;2023-04-25T03:36:15;10.67;;;5.83;;
50066;SDS011;35952;52.524;13.340;2023-04-25T03:38:40;8.40;;;6.47;;
50066;SDS011;35952;52.524;13.340;2023-04-25T03:41:06;7.47;;;5.60;;
50066;SDS011;35952;52.524;13.340;2023-04-25T03:43:32;11.00;;;6.03;;
50066;SDS011;35952;52.524;13.340;2023-04-25T03:45:58;10.57;;;7.10;;
50066;SDS011;35952;52.524;13.340;2023-04-25T03:48:23;11.50;;;6.80;;
50066;SDS011;35952;52.524;13.340;2023-04-25T03:50:50;7.03;;;6.33;;
50066;SDS011;35952;52.524;13.340;2023-04-25T03:53:16;7.70;;;5.73;;
50066;SDS011;35952;52.524;13.340;2023-04-25T03:55:42;9.20;;;6.10;;
50066;SDS011;35952;52.524;13.340;2023-04-25T03:58:07;6.47;;;5.80;;
50066;SDS011;35952;52.524;13.340;2023-04-25T04:00:34;5.80;;;5.10;;
50066;SDS011;35952;52.524;13.340;2023-04-25T04:02:59;8.33;;;5.63;;
50066;SDS011;35952;52.524;13.340;2023-04-25T04:05:25;7.60;;;5.70;;
50066;SDS011;35952;52.524;13.340;2023-04-25T04:07:51;8.07;;;6.67;;
50066;SDS011;35952;52.524;13.340;2023-04-25T04:10:17;13.63;;;5.17;;
50066;SDS011;35952;52.524;13.340;2023-04-25T04:12:42;8.37;;;6.33;;
50066;SDS011;35952;52.524;13.340;2023-04-25T04:15:08;8.90;;;5.77;;
50066;SDS011;35952;52.524;13.340;2023-04-25T04:17:34;8.60;;;6.47;;
50066;SDS011;35952;52.524;13.340;2023-04-25T04:20:00;9.10;;;5.83;;
50066;SDS011;35952;52.524;13.340;2023-04-25T04:22:25;10.33;;;6.83;;
50066;SDS011;35952;52.524;13.340;2023-04-25T04:24:51;8.03;;;5.47;;
50066;SDS011;35952;52.524;13.340;2023-04-25T04:27:17;9.13;;;5.27;;
50066;SDS011;35952;52.524;13.340;2023-04-25T04:29:44;8.90;;;5.50;;
50066;SDS011;35952;52.524;13.340;2023-04-25T04:32:10;13.23;;;5.90;;
50066;SDS011;35952;52.524;13.340;2023-04-25T04:34:35;7.20;;;5.60;;
50066;SDS011;35952;52.524;13.340;2023-04-25T04:37:01;6.27;;;5.37;;
50066;SDS011;35952;52.524;13.340;2023-04-25T04:39:27;7.50;;;5.53;;
50066;SDS011;35952;52.524;13.340;2023-04-25T04:41:53;8.87;;;5.87;;
50066;SDS011;35952;52.524;13.340;2023-04-25T04:44:18;9.53;;;6.20;;
50066;SDS011;35952;52.524;13.340;2023-04-25T04:46:44;7.20;;;5.40;;
50066;SDS011;35952;52.524;13.340;2023-04-25T04:49:11;5.40;;;4.80;;
50066;SDS011;35952;52.524;13.340;2023-04-25T04:51:38;5.70;;;4.40;;
50066;SDS011;35952;52.524;13.340;2023-04-25T04:54:05;7.97;;;5.70;;
50066;SDS011;35952;52.524;13.340;2023-04-25T04:56:30;7.93;;;5.20;;
50066;SDS011;35952;52.524;13.340;2023-04-25T04:58:57;7.17;;;5.90;;
50066;SDS011;35952;52.524;13.340;2023-04-25T05:01:22;9.67;;;6.60;;
50066;SDS011;35952;52.524;13.340;2023-04-25T05:03:48;8.93;;;5.80;;
50066;SDS011;35952;52.524;13.340;2023-04-25T05:06:14;9.03;;;5.80;;
50066;SDS011;35952;52.524;13.340;2023-04-25T05:08:41;7.33;;;5.40;;
50066;SDS011;35952;52.524;13.340;2023-04-25T05:11:07;10.47;;;5.30;;
50066;SDS011;35952;52.524;13.340;2023-04-25T05:13:32;7.67;;;5.90;;
50066;SDS011;35952;52.524;13.340;2023-04-25T05:15:58;7.67;;;6.50;;
50066;SDS011;35952;52.524;13.340;2023-04-25T05:18:23;8.50;;;5.53;;
50066;SDS011;35952;52.524;13.340;2023-04-25T05:20:49;6.87;;;5.90;;
50066;SDS011;35952;52.524;13.340;2023-04-25T05:23:14;8.80;;;5.40;;
50066;SDS011;35952;52.524;13.340;2023-04-25T05:25:41;7.57;;;5.93;;
50066;SDS011;35952;52.524;13.340;2023-04-25T05:28:06;6.67;;;5.90;;
50066;SDS011;35952;52.524;13.340;2023-04-25T05:30:32;8.20;;;6.00;;
50066;SDS011;35952;52.524;13.340;2023-04-25T05:32:59;6.70;;;5.50;;
50066;SDS011;35952;52.524;13.340;2023-04-25T05:35:24;10.87;;;5.93;;
50066;SDS011;35952;52.524;13.340;2023-04-25T05:37:50;6.30;;;5.60;;
50066;SDS011;35952;52.524;13.340;2023-04-25T05:40:15;7.47;;;5.33;;
50066;SDS011;35952;52.524;13.340;2023-04-25T05:42:41;8.97;;;6.03;;
50066;SDS011;35952;52.524;13.340;2023-04-25T05:45:06;7.03;;;6.33;;
50066;SDS011;35952;52.524;13.340;2023-04-25T05:47:32;12.87;;;7.00;;
50066;SDS011;35952;52.524;13.340;2023-04-25T05:49:57;9.67;;;5.80;;
50066;SDS011;35952;52.524;13.340;2023-04-25T05:52:23;7.77;;;5.87;;
50066;SDS011;35952;52.524;13.340;2023-04-25T05:54:48;6.33;;;5.73;;
50066;SDS011;35952;52.524;13.340;2023-04-25T05:57:24;12.03;;;6.90;;
50066;SDS011;35952;52.524;13.340;2023-04-25T05:59:51;16.40;;;7.27;;
50066;SDS011;35952;52.524;13.340;2023-04-25T06:02:18;12.57;;;7.00;;
50066;SDS011;35952;52.524;13.340;2023-04-25T06:04:45;13.30;;;8.07;;
50066;SDS011;35952;52.524;13.340;2023-04-25T06:07:10;16.13;;;6.70;;
50066;SDS011;35952;52.524;13.340;2023-04-25T06:09:36;10.70;;;7.30;;
50066;SDS011;35952;52.524;13.340;2023-04-25T06:12:03;9.30;;;6.90;;
50066;SDS011;35952;52.524;13.340;2023-04-25T06:14:29;12.33;;;7.27;;
50066;SDS011;35952;52.524;13.340;2023-04-25T06:16:56;8.77;;;6.40;;
50066;SDS011;35952;52.524;13.340;2023-04-25T06:19:22;8.80;;;6.70;;
50066;SDS011;35952;52.524;13.340;2023-04-25T06:21:47;9.17;;;6.20;;
50066;SDS011;35952;52.524;13.340;2023-04-25T06:24:13;15.13;;;7.27;;
50066;SDS011;35952;52.524;13.340;2023-04-25T06:26:38;10.90;;;6.60;;
50066;SDS011;35952;52.524;13.340;2023-04-25T06:29:04;9.10;;;7.93;;
50066;SDS011;35952;52.524;13.340;2023-04-25T06:31:29;9.80;;;7.10;;
50066;SDS011;35952;52.524;13.340;2023-04-25T06:33:57;18.30;;;7.23;;
50066;SDS011;35952;52.524;13.340;2023-04-25T06:36:23;8.10;;;7.17;;
50066;SDS011;35952;52.524;13.340;2023-04-25T06:38:53;10.37;;;6.73;;
50066;SDS011;35952;52.524;13.340;2023-04-25T06:41:19;9.93;;;6.30;;
50066;SDS011;35952;52.524;13.340;2023-04-25T06:43:45;7.70;;;6.90;;
50066;SDS011;35952;52.524;13.340;2023-04-25T06:46:11;7.20;;;6.40;;
50066;SDS011;35952;52.524;13.340;2023-04-25T06:48:37;13.47;;;6.87;;
50066;SDS011;35952;52.524;13.340;2023-04-25T06:51:02;11.67;;;7.90;;
50066;SDS011;35952;52.524;13.340;2023-04-25T06:53:28;11.07;;;6.83;;
50066;SDS011;35952;52.524;13.340;2023-04-25T06:55:53;10.50;;;6.73;;
50066;SDS011;35952;52.524;13.340;2023-04-25T06:58:19;9.53;;;7.10;;
50066;SDS011;35952;52.524;13.340;2023-04-25T07:00:45;9.60;;;6.70;;
50066;SDS011;35952;52.524;13.340;2023-04-25T07:03:10;16.80;;;6.77;;
50066;SDS011;35952;52.524;13.340;2023-04-25T07:05:36;10.03;;;6.50;;
50066;SDS011;35952;52.524;13.340;2023-04-25T07:08:02;11.33;;;6.80;;
50066;SDS011;35952;52.524;13.340;2023-04-25T07:10:28;10.93;;;7.00;;
50066;SDS011;35952;52.524;13.340;2023-04-25T07:12:53;8.23;;;5.67;;
50066;SDS011;35952;52.524;13.340;2023-04-25T07:15:19;11.80;;;6.67;;
50066;SDS011;35952;52.524;13.340;2023-04-25T07:17:44;10.07;;;7.27;;
50066;SDS011;35952;52.524;13.340;2023-04-25T07:20:10;10.40;;;5.80;;
50066;SDS011;35952;52.524;13.340;2023-04-25T07:22:36;11.00;;;5.97;;
50066;SDS011;35952;52.524;13.340;2023-04-25T07:25:01;6.30;;;5.70;;
50066;SDS011;35952;52.524;13.340;2023-04-25T07:27:29;12.30;;;5.83;;
50066;SDS011;35952;52.524;13.340;2023-04-25T07:29:55;8.97;;;6.73;;
50066;SDS011;35952;52.524;13.340;2023-04-25T07:32:20;13.87;;;6.93;;
50066;SDS011;35952;52.524;13.340;2023-04-25T07:34:46;10.50;;;6.07;;
50066;SDS011;35952;52.524;13.340;2023-04-25T07:37:11;11.20;;;6.70;;
50066;SDS011;35952;52.524;13.340;2023-04-25T07:39:39;15.13;;;5.77;;
50066;SDS011;35952;52.524;13.340;2023-04-25T07:42:04;9.87;;;5.90;;
50066;SDS011;35952;52.524;13.340;2023-04-25T07:44:32;14.70;;;5.63;;
50066;SDS011;35952;52.524;13.340;2023-04-25T07:47:03;10.43;;;6.07;;
50066;SDS011;35952;52.524;13.340;2023-04-25T07:49:32;8.60;;;5.53;;
50066;SDS011;35952;52.524;13.340;2023-04-25T07:51:59;9.37;;;5.00;;
50066;SDS011;35952;52.524;13.340;2023-04-25T07:54:25;12.40;;;6.90;;
50066;SDS011;35952;52.524;13.340;2023-04-25T07:56:51;16.20;;;5.77;;
50066;SDS011;35952;52.524;13.340;2023-04-25T07:59:16;12.70;;;5.97;;
50066;SDS011;35952;52.524;13.340;2023-04-25T08:01:42;14.03;;;5.17;;
50066;SDS011;35952;52.524;13.340;2023-04-25T08:04:07;17.53;;;6.30;;
50066;SDS011;35952;52.524;13.340;2023-04-25T08:06:33;7.47;;;5.70;;
50066;SDS011;35952;52.524;13.340;2023-04-25T08:08:59;14.37;;;6.40;;
50066;SDS011;35952;52.524;13.340;2023-04-25T08:11:24;12.63;;;5.30;;
50066;SDS011;35952;52.524;13.340;2023-04-25T08:13:50;13.37;;;5.33;;
50066;SDS011;35952;52.524;13.340;2023-04-25T08:16:15;11.77;;;5.40;;
50066;SDS011;35952;52.524;13.340;2023-04-25T08:18:41;18.40;;;5.90;;
50066;SDS011;35952;52.524;13.340;2023-04-25T08:21:07;11.10;;;5.17;;
50066;SDS011;35952;52.524;13.340;2023-04-25T08:23:33;14.40;;;6.43;;
50066;SDS011;35952;52.524;13.340;2023-04-25T08:25:59;15.53;;;6.30;;
50066;SDS011;35952;52.524;13.340;2023-04-25T08:28:25;13.90;;;5.20;;
50066;SDS011;35952;52.524;13.340;2023-04-25T08:30:50;18.60;;;6.70;;
50066;SDS011;35952;52.524;13.340;2023-04-25T08:33:16;16.47;;;5.57;;
50066;SDS011;35952;52.524;13.340;2023-04-25T08:35:41;16.00;;;5.90;;
50066;SDS011;35952;52.524;13.340;2023-04-25T08:38:07;9.77;;;5.50;;
50066;SDS011;35952;52.524;13.340;2023-04-25T08:40:34;12.50;;;5.03;;
50066;SDS011;35952;52.524;13.340;2023-04-25T08:43:03;13.67;;;6.10;;
50066;SDS011;35952;52.524;13.340;2023-04-25T08:45:36;12.30;;;4.83;;
50066;SDS011;35952;52.524;13.340;2023-04-25T08:48:11;14.80;;;5.40;;
50066;SDS011;35952;52.524;13.340;2023-04-25T08:50:51;8.03;;;4.67;;
50066;SDS011;35952;52.524;13.340;2023-04-25T08:53:21;6.20;;;3.50;;
50066;SDS011;35952;52.524;13.340;2023-04-25T08:55:52;11.40;;;4.60;;
50066;SDS011;35952;52.524;13.340;2023-04-25T08:58:19;10.90;;;4.90;;
50066;SDS011;35952;52.524;13.340;2023-04-25T09:00:46;6.83;;;3.80;;
50066;SDS011;35952;52.524;13.340;2023-04-25T09:03:12;7.83;;;4.30;;
50066;SDS011;35952;52.524;13.340;2023-04-25T09:05:39;7.87;;;4.13;;
50066;SDS011;35952;52.524;13.340;2023-04-25T09:08:05;14.13;;;3.43;;
50066;SDS011;35952;52.524;13.340;2023-04-25T09:10:31;24.37;;;11.30;;
50066;SDS011;35952;52.524;13.340;2023-04-25T09:13:03;5.33;;;3.13;;
50066;SDS011;35952;52.524;13.340;2023-04-25T09:15:30;19.73;;;4.63;;
50066;SDS011;35952;52.524;13.340;2023-04-25T09:17:57;8.70;;;4.30;;
50066;SDS011;35952;52.524;13.340;2023-04-25T09:20:23;10.10;;;4.50;;
50066;SDS011;35952;52.524;13.340;2023-04-25T09:22:49;8.83;;;3.90;;
50066;SDS011;35952;52.524;13.340;2023-04-25T09:25:27;8.50;;;3.67;;
50066;SDS011;35952;52.524;13.340;2023-04-25T09:28:03;10.13;;;4.80;;
50066;SDS011;35952;52.524;13.340;2023-04-25T09:30:30;20.03;;;4.70;;
50066;SDS011;35952;52.524;13.340;2023-04-25T09:32:57;6.13;;;3.30;;
50066;SDS011;35952;52.524;13.340;2023-04-25T09:35:28;7.03;;;3.60;;
50066;SDS011;35952;52.524;13.340;2023-04-25T09:37:54;8.60;;;4.00;;
50066;SDS011;35952;52.524;13.340;2023-04-25T09:40:20;3.87;;;3.13;;
50066;SDS011;35952;52.524;13.340;2023-04-25T09:42:46;10.00;;;3.80;;
50066;SDS011;35952;52.524;13.340;2023-04-25T09:45:12;6.20;;;3.63;;
50066;SDS011;35952;52.524;13.340;2023-04-25T09:47:41;4.50;;;3.07;;
50066;SDS011;35952;52.524;13.340;2023-04-25T09:50:16;3.90;;;3.30;;
50066;SDS011;35952;52.524;13.340;2023-04-25T09:52:43;7.07;;;4.00;;
50066;SDS011;35952;52.524;13.340;2023-04-25T09:55:09;14.90;;;4.27;;
50066;SDS011;35952;52.524;13.340;2023-04-25T09:57:35;11.50;;;5.60;;
50066;SDS011;35952;52.524;13.340;2023-04-25T10:00:04;7.27;;;3.40;;
50066;SDS011;35952;52.524;13.340;2023-04-25T10:02:34;7.93;;;3.17;;
50066;SDS011;35952;52.524;13.340;2023-04-25T10:05:00;7.30;;;3.43;;
50066;SDS011;35952;52.524;13.340;2023-04-25T10:07:29;13.60;;;3.73;;
50066;SDS011;35952;52.524;13.340;2023-04-25T10:09:58;5.57;;;3.43;;
50066;SDS011;35952;52.524;13.340;2023-04-25T10:12:26;7.27;;;3.33;;
50066;SDS011;35952;52.524;13.340;2023-04-25T10:14:52;7.40;;;3.50;;
50066;SDS011;35952;52.524;13.340;2023-04-25T10:17:19;13.10;;;3.63;;
50066;SDS011;35952;52.524;13.340;2023-04-25T10:19:46;8.63;;;3.43;;
50066;SDS011;35952;52.524;13.340;2023-04-25T10:22:17;7.43;;;3.67;;
50066;SDS011;35952;52.524;13.340;2023-04-25T10:24:48;7.90;;;4.00;;
50066;SDS011;35952;52.524;13.340;2023-04-25T10:27:15;6.13;;;2.93;;
50066;SDS011;35952;52.524;13.340;2023-04-25T10:29:41;8.80;;;3.43;;
50066;SDS011;35952;52.524;13.340;2023-04-25T10:32:08;6.80;;;3.33;;
50066;SDS011;35952;52.524;13.340;2023-04-25T10:34:41;7.33;;;3.93;;
50066;SDS011;35952;52.524;13.340;2023-04-25T10:37:09;12.00;;;4.30;;
50066;SDS011;35952;52.524;13.340;2023-04-25T10:39:35;5.20;;;2.80;;
50066;SDS011;35952;52.524;13.340;2023-04-25T10:42:02;4.50;;;3.80;;
50066;SDS011;35952;52.524;13.340;2023-04-25T10:44:28;8.43;;;4.47;;
50066;SDS011;35952;52.524;13.340;2023-04-25T10:46:55;10.83;;;4.20;;
50066;SDS011;35952;52.524;13.340;2023-04-25T10:49:41;13.30;;;4.70;;
50066;SDS011;35952;52.524;13.340;2023-04-25T10:52:16;12.00;;;3.97;;
50066;SDS011;35952;52.524;13.340;2023-04-25T10:54:46;6.63;;;3.20;;
50066;SDS011;35952;52.524;13.340;2023-04-25T11:00:00;9.97;;;4.00;;
50066;SDS011;35952;52.524;13.340;2023-04-25T11:02:36;8.83;;;3.63;;
50066;SDS011;35952;52.524;13.340;2023-04-25T11:05:05;8.47;;;3.30;;
50066;SDS011;35952;52.524;13.340;2023-04-25T11:07:33;5.23;;;3.63;;
50066;SDS011;35952;52.524;13.340;2023-04-25T11:10:04;7.67;;;3.33;;
50066;SDS011;35952;52.524;13.340;2023-04-25T11:12:30;6.40;;;4.40;;
50066;SDS011;35952;52.524;13.340;2023-04-25T11:15:00;9.90;;;3.37;;
50066;SDS011;35952;52.524;13.340;2023-04-25T11:17:27;8.30;;;3.93;;
50066;SDS011;35952;52.524;13.340;2023-04-25T11:19:53;8.07;;;3.87;;
50066;SDS011;35952;52.524;13.340;2023-04-25T11:22:19;6.47;;;3.60;;
50066;SDS011;35952;52.524;13.340;2023-04-25T11:24:46;6.40;;;3.17;;
50066;SDS011;35952;52.524;13.340;2023-04-25T11:27:12;9.97;;;4.03;;
50066;SDS011;35952;52.524;13.340;2023-04-25T11:29:38;7.37;;;3.20;;
50066;SDS011;35952;52.524;13.340;2023-04-25T11:32:03;7.90;;;3.23;;
50066;SDS011;35952;52.524;13.340;2023-04-25T11:34:30;9.67;;;3.60;;
50066;SDS011;35952;52.524;13.340;2023-04-25T11:36:57;5.50;;;3.00;;
50066;SDS011;35952;52.524;13.340;2023-04-25T11:39:24;13.80;;;3.40;;
50066;SDS011;35952;52.524;13.340;2023-04-25T11:41:51;4.70;;;3.50;;
50066;SDS011;35952;52.524;13.340;2023-04-25T11:44:17;8.93;;;2.97;;
50066;SDS011;35952;52.524;13.340;2023-04-25T11:46:44;7.27;;;3.40;;
50066;SDS011;35952;52.524;13.340;2023-04-25T11:49:10;8.30;;;4.40;;
50066;SDS011;35952;52.524;13.340;2023-04-25T11:51:45;6.50;;;3.33;;
50066;SDS011;35952;52.524;13.340;2023-04-25T11:54:12;9.03;;;3.90;;
50066;SDS011;35952;52.524;13.340;2023-04-25T11:56:40;11.20;;;3.97;;
50066;SDS011;35952;52.524;13.340;2023-04-25T11:59:07;7.00;;;2.53;;
50066;SDS011;35952;52.524;13.340;2023-04-25T12:01:33;5.57;;;3.17;;
50066;SDS011;35952;52.524;13.340;2023-04-25T12:04:13;5.63;;;3.33;;
50066;SDS011;35952;52.524;13.340;2023-04-25T12:06:40;6.90;;;3.27;;
50066;SDS011;35952;52.524;13.340;2023-04-25T12:09:07;7.20;;;3.07;;
50066;SDS011;35952;52.524;13.340;2023-04-25T12:11:41;15.30;;;4.23;;
50066;SDS011;35952;52.524;13.340;2023-04-25T12:14:12;6.67;;;4.20;;
50066;SDS011;35952;52.524;13.340;2023-04-25T12:16:57;4.70;;;3.53;;
50066;SDS011;35952;52.524;13.340;2023-04-25T12:19:24;7.63;;;4.63;;
50066;SDS011;35952;52.524;13.340;2023-04-25T12:21:50;6.10;;;3.63;;
50066;SDS011;35952;52.524;13.340;2023-04-25T12:24:17;4.53;;;2.90;;
50066;SDS011;35952;52.524;13.340;2023-04-25T12:26:48;4.43;;;3.00;;
50066;SDS011;35952;52.524;13.340;2023-04-25T12:29:24;5.43;;;3.70;;
50066;SDS011;35952;52.524;13.340;2023-04-25T12:31:51;7.30;;;3.53;;
50066;SDS011;35952;52.524;13.340;2023-04-25T12:34:18;8.50;;;2.90;;
50066;SDS011;35952;52.524;13.340;2023-04-25T12:36:44;4.43;;;2.80;;
50066;SDS011;35952;52.524;13.340;2023-04-25T12:39:22;4.80;;;2.80;;
50066;SDS011;35952;52.524;13.340;2023-04-25T12:41:50;6.40;;;3.87;;
50066;SDS011;35952;52.524;13.340;2023-04-25T12:44:19;11.10;;;4.00;;
50066;SDS011;35952;52.524;13.340;2023-04-25T12:46:45;4.60;;;4.20;;
50066;SDS011;35952;52.524;13.340;2023-04-25T12:49:12;6.93;;;2.93;;
50066;SDS011;35952;52.524;13.340;2023-04-25T12:51:37;3.40;;;2.77;;
50066;SDS011;35952;52.524;13.340;2023-04-25T12:54:04;6.87;;;3.23;;
50066;SDS011;35952;52.524;13.340;2023-04-25T12:56:32;5.33;;;3.47;;
50066;SDS011;35952;52.524;13.340;2023-04-25T12:58:58;3.97;;;2.50;;
50066;SDS011;35952;52.524;13.340;2023-04-25T13:01:24;8.83;;;3.53;;
50066;SDS011;35952;52.524;13.340;2023-04-25T13:03:51;5.77;;;2.70;;
50066;SDS011;35952;52.524;13.340;2023-04-25T13:06:17;4.40;;;2.63;;
50066;SDS011;35952;52.524;13.340;2023-04-25T13:08:44;8.07;;;3.30;;
50066;SDS011;35952;52.524;13.340;2023-04-25T13:11:10;6.77;;;2.87;;
50066;SDS011;35952;52.524;13.340;2023-04-25T13:13:36;8.00;;;3.07;;
50066;SDS011;35952;52.524;13.340;2023-04-25T13:16:02;3.00;;;2.40;;
50066;SDS011;35952;52.524;13.340;2023-04-25T13:18:28;6.17;;;2.23;;
50066;SDS011;35952;52.524;13.340;2023-04-25T13:20:55;4.30;;;2.90;;
50066;SDS011;35952;52.524;13.340;2023-04-25T13:23:20;5.30;;;3.10;;
50066;SDS011;35952;52.524;13.340;2023-04-25T13:25:47;3.43;;;2.40;;
50066;SDS011;35952;52.524;13.340;2023-04-25T13:28:12;7.20;;;3.27;;
50066;SDS011;35952;52.524;13.340;2023-04-25T13:30:39;6.70;;;4.20;;
50066;SDS011;35952;52.524;13.340;2023-04-25T13:33:04;7.53;;;3.43;;
50066;SDS011;35952;52.524;13.340;2023-04-25T13:35:30;7.83;;;4.07;;
50066;SDS011;35952;52.524;13.340;2023-04-25T13:37:56;6.33;;;3.40;;
50066;SDS011;35952;52.524;13.340;2023-04-25T13:40:21;7.23;;;4.17;;
50066;SDS011;35952;52.524;13.340;2023-04-25T13:42:47;4.50;;;3.07;;
50066;SDS011;35952;52.524;13.340;2023-04-25T13:45:12;5.47;;;3.10;;
50066;SDS011;35952;52.524;13.340;2023-04-25T13:47:38;5.40;;;3.17;;
50066;SDS011;35952;52.524;13.340;2023-04-25T13:50:04;5.00;;;2.63;;
50066;SDS011;35952;52.524;13.340;2023-04-25T13:52:31;5.60;;;3.03;;
50066;SDS011;35952;52.524;13.340;2023-04-25T13:54:57;3.50;;;2.60;;
50066;SDS011;35952;52.524;13.340;2023-04-25T13:57:22;5.90;;;3.60;;
50066;SDS011;35952;52.524;13.340;2023-04-25T13:59:48;5.53;;;3.23;;
50066;SDS011;35952;52.524;13.340;2023-04-25T14:02:13;5.97;;;3.37;;
50066;SDS011;35952;52.524;13.340;2023-04-25T14:04:40;6.60;;;3.37;;
50066;SDS011;35952;52.524;13.340;2023-04-25T14:07:05;8.20;;;3.10;;
50066;SDS011;35952;52.524;13.340;2023-04-25T14:09:31;11.20;;;3.70;;
50066;SDS011;35952;52.524;13.340;2023-04-25T14:11:57;5.97;;;3.43;;
50066;SDS011;35952;52.524;13.340;2023-04-25T14:14:22;8.40;;;3.20;;
50066;SDS011;35952;52.524;13.340;2023-04-25T14:16:48;9.20;;;3.90;;
50066;SDS011;35952;52.524;13.340;2023-04-25T14:19:15;15.63;;;3.43;;
50066;SDS011;35952;52.524;13.340;2023-04-25T14:21:43;6.37;;;3.10;;
50066;SDS011;35952;52.524;13.340;2023-04-25T14:24:09;6.40;;;3.93;;
50066;SDS011;35952;52.524;13.340;2023-04-25T14:26:37;10.77;;;3.40;;
50066;SDS011;35952;52.524;13.340;2023-04-25T14:29:04;5.80;;;3.00;;
50066;SDS011;35952;52.524;13.340;2023-04-25T14:31:33;6.07;;;3.17;;